sensor_id;sensor_type;location;lat;lon;timestamp;temperature;humidity
37786;DHT22;23625;48.784;9.336;2023-07-13T00:01:27;20.90;73.50
37786;DHT22;23625;48.784;9.336;2023-07-13T00:03:53;20.80;74.30
37786;DHT22;23625;48.784;9.336;2023-07-13T00:06:19;20.80;73.70
37786;DHT22;23625;48.784;9.336;2023-07-13T00:08:46;20.70;74.10
37786;DHT22;23625;48.784;9.336;2023-07-13T00:11:13;20.70;75.50
37786;DHT22;23625;48.784;9.336;2023-07-13T00:13:39;20.60;75.80
37786;DHT22;23625;48.784;9.336;2023-07-13T00:16:06;20.60;76.70
37786;DHT22;23625;48.784;9.336;2023-07-13T00:18:31;20.60;76.20
37786;DHT22;23625;48.784;9.336;2023-07-13T00:20:57;20.50;75.90
37786;DHT22;23625;48.784;9.336;2023-07-13T00:23:37;20.60;75.40
37786;DHT22;23625;48.784;9.336;2023-07-13T00:26:04;20.50;76.10
37786;DHT22;23625;48.784;9.336;2023-07-13T00:28:31;20.50;76.00
37786;DHT22;23625;48.784;9.336;2023-07-13T00:30:57;20.50;75.00
37786;DHT22;23625;48.784;9.336;2023-07-13T00:33:22;20.40;75.20
37786;DHT22;23625;48.784;9.336;2023-07-13T00:35:49;20.50;73.80
37786;DHT22;23625;48.784;9.336;2023-07-13T00:38:15;20.40;75.70
37786;DHT22;23625;48.784;9.336;2023-07-13T00:40:41;20.40;75.30
37786;DHT22;23625;48.784;9.336;2023-07-13T00:43:36;20.30;76.50
37786;DHT22;23625;48.784;9.336;2023-07-13T00:48:31;20.20;75.20
37786;DHT22;23625;48.784;9.336;2023-07-13T00:50:58;20.30;74.10
37786;DHT22;23625;48.784;9.336;2023-07-13T00:53:26;20.30;73.80
37786;DHT22;23625;48.784;9.336;2023-07-13T00:55:53;20.20;74.60
37786;DHT22;23625;48.784;9.336;2023-07-13T00:58:20;20.40;73.50
37786;DHT22;23625;48.784;9.336;2023-07-13T01:00:46;20.20;73.90
37786;DHT22;23625;48.784;9.336;2023-07-13T01:03:12;20.10;75.00
37786;DHT22;23625;48.784;9.336;2023-07-13T01:05:38;20.10;74.20
37786;DHT22;23625;48.784;9.336;2023-07-13T01:08:04;20.00;74.70
37786;DHT22;23625;48.784;9.336;2023-07-13T01:10:31;20.00;74.20
37786;DHT22;23625;48.784;9.336;2023-07-13T01:13:07;20.00;75.20
37786;DHT22;23625;48.784;9.336;2023-07-13T01:15:42;19.80;75.20
37786;DHT22;23625;48.784;9.336;2023-07-13T01:18:14;19.80;76.80
37786;DHT22;23625;48.784;9.336;2023-07-13T01:20:41;19.60;78.50
37786;DHT22;23625;48.784;9.336;2023-07-13T01:23:10;19.50;81.50
37786;DHT22;23625;48.784;9.336;2023-07-13T01:25:37;19.40;79.10
37786;DHT22;23625;48.784;9.336;2023-07-13T01:28:07;19.40;79.30
37786;DHT22;23625;48.784;9.336;2023-07-13T01:30:36;19.50;79.70
37786;DHT22;23625;48.784;9.336;2023-07-13T01:33:06;19.40;83.50
37786;DHT22;23625;48.784;9.336;2023-07-13T01:35:32;19.30;84.20
37786;DHT22;23625;48.784;9.336;2023-07-13T01:37:58;19.30;85.70
37786;DHT22;23625;48.784;9.336;2023-07-13T01:40:25;19.20;87.70
37786;DHT22;23625;48.784;9.336;2023-07-13T01:42:51;19.10;89.20
37786;DHT22;23625;48.784;9.336;2023-07-13T01:45:16;19.00;83.90
37786;DHT22;23625;48.784;9.336;2023-07-13T01:47:42;19.00;90.30
37786;DHT22;23625;48.784;9.336;2023-07-13T01:50:08;18.80;92.80
37786;DHT22;23625;48.784;9.336;2023-07-13T01:52:33;18.60;93.50
37786;DHT22;23625;48.784;9.336;2023-07-13T01:54:59;18.50;95.90
37786;DHT22;23625;48.784;9.336;2023-07-13T01:57:25;18.40;96.10
37786;DHT22;23625;48.784;9.336;2023-07-13T01:59:50;18.30;96.00
37786;DHT22;23625;48.784;9.336;2023-07-13T02:02:16;18.30;97.20
37786;DHT22;23625;48.784;9.336;2023-07-13T02:04:41;18.20;98.10
37786;DHT22;23625;48.784;9.336;2023-07-13T02:07:08;18.20;99.30
37786;DHT22;23625;48.784;9.336;2023-07-13T02:09:34;18.10;99.90
37786;DHT22;23625;48.784;9.336;2023-07-13T02:12:00;18.00;98.20
37786;DHT22;23625;48.784;9.336;2023-07-13T02:14:26;17.90;99.90
37786;DHT22;23625;48.784;9.336;2023-07-13T02:16:51;17.80;99.90
37786;DHT22;23625;48.784;9.336;2023-07-13T02:19:17;17.60;99.90
37786;DHT22;23625;48.784;9.336;2023-07-13T02:21:43;17.60;99.90
37786;DHT22;23625;48.784;9.336;2023-07-13T02:24:08;17.40;99.90
37786;DHT22;23625;48.784;9.336;2023-07-13T02:26:34;17.30;99.90
37786;DHT22;23625;48.784;9.336;2023-07-13T02:29:00;17.10;99.90
37786;DHT22;23625;48.784;9.336;2023-07-13T02:31:25;16.90;99.90
37786;DHT22;23625;48.784;9.336;2023-07-13T02:33:51;17.00;99.90
37786;DHT22;23625;48.784;9.336;2023-07-13T02:36:17;16.90;99.90
37786;DHT22;23625;48.784;9.336;2023-07-13T02:38:44;16.80;99.90
37786;DHT22;23625;48.784;9.336;2023-07-13T02:41:09;16.90;99.90
37786;DHT22;23625;48.784;9.336;2023-07-13T02:43:37;16.70;99.90
37786;DHT22;23625;48.784;9.336;2023-07-13T02:46:03;16.60;99.90
37786;DHT22;23625;48.784;9.336;2023-07-13T02:48:35;16.50;99.90
37786;DHT22;23625;48.784;9.336;2023-07-13T02:51:01;16.40;99.90
37786;DHT22;23625;48.784;9.336;2023-07-13T02:53:26;16.30;99.90
37786;DHT22;23625;48.784;9.336;2023-07-13T02:55:52;16.20;99.90
37786;DHT22;23625;48.784;9.336;2023-07-13T02:58:18;16.20;99.90
37786;DHT22;23625;48.784;9.336;2023-07-13T03:00:45;16.10;99.90
37786;DHT22;23625;48.784;9.336;2023-07-13T03:03:12;16.10;99.90
37786;DHT22;23625;48.784;9.336;2023-07-13T03:05:41;16.10;99.90
37786;DHT22;23625;48.784;9.336;2023-07-13T03:08:09;16.00;99.90
37786;DHT22;23625;48.784;9.336;2023-07-13T03:10:35;15.90;99.90
37786;DHT22;23625;48.784;9.336;2023-07-13T03:13:01;15.90;99.90
37786;DHT22;23625;48.784;9.336;2023-07-13T03:15:27;15.90;99.90
37786;DHT22;23625;48.784;9.336;2023-07-13T03:17:52;15.80;99.90
37786;DHT22;23625;48.784;9.336;2023-07-13T03:20:18;15.90;99.90
37786;DHT22;23625;48.784;9.336;2023-07-13T03:22:44;15.80;99.90
37786;DHT22;23625;48.784;9.336;2023-07-13T03:25:10;15.80;99.90
37786;DHT22;23625;48.784;9.336;2023-07-13T03:27:36;15.80;99.90
37786;DHT22;23625;48.784;9.336;2023-07-13T03:30:03;15.80;99.90
37786;DHT22;23625;48.784;9.336;2023-07-13T03:32:29;15.70;99.90
37786;DHT22;23625;48.784;9.336;2023-07-13T03:34:54;15.70;99.90
37786;DHT22;23625;48.784;9.336;2023-07-13T03:37:20;15.80;99.90
37786;DHT22;23625;48.784;9.336;2023-07-13T03:39:46;15.70;99.90
37786;DHT22;23625;48.784;9.336;2023-07-13T03:42:12;15.70;99.90
37786;DHT22;23625;48.784;9.336;2023-07-13T03:44:39;15.80;99.90
37786;DHT22;23625;48.784;9.336;2023-07-13T03:47:05;15.90;99.90
37786;DHT22;23625;48.784;9.336;2023-07-13T03:49:31;15.80;99.90
37786;DHT22;23625;48.784;9.336;2023-07-13T03:51:57;15.80;99.90
37786;DHT22;23625;48.784;9.336;2023-07-13T03:54:22;15.80;99.90
37786;DHT22;23625;48.784;9.336;2023-07-13T03:56:48;15.80;99.90
37786;DHT22;23625;48.784;9.336;2023-07-13T03:59:14;15.70;99.90
37786;DHT22;23625;48.784;9.336;2023-07-13T04:01:39;15.80;99.90
37786;DHT22;23625;48.784;9.336;2023-07-13T04:04:05;15.80;99.90
37786;DHT22;23625;48.784;9.336;2023-07-13T04:06:31;15.80;99.90
37786;DHT22;23625;48.784;9.336;2023-07-13T04:08:59;15.80;99.90
37786;DHT22;23625;48.784;9.336;2023-07-13T04:11:27;15.90;99.90
37786;DHT22;23625;48.784;9.336;2023-07-13T04:13:54;15.90;99.90
37786;DHT22;23625;48.784;9.336;2023-07-13T04:16:20;16.00;99.90
37786;DHT22;23625;48.784;9.336;2023-07-13T04:18:47;16.10;99.90
37786;DHT22;23625;48.784;9.336;2023-07-13T04:21:13;16.10;99.90
37786;DHT22;23625;48.784;9.336;2023-07-13T04:23:39;16.20;99.90
37786;DHT22;23625;48.784;9.336;2023-07-13T04:26:05;16.20;99.90
37786;DHT22;23625;48.784;9.336;2023-07-13T04:28:32;16.20;99.90
37786;DHT22;23625;48.784;9.336;2023-07-13T04:30:58;16.20;99.90
37786;DHT22;23625;48.784;9.336;2023-07-13T04:33:23;16.30;99.90
37786;DHT22;23625;48.784;9.336;2023-07-13T04:35:51;16.30;99.90
37786;DHT22;23625;48.784;9.336;2023-07-13T04:38:22;16.30;99.90
37786;DHT22;23625;48.784;9.336;2023-07-13T04:40:49;16.30;99.90
37786;DHT22;23625;48.784;9.336;2023-07-13T04:43:15;16.40;99.90
37786;DHT22;23625;48.784;9.336;2023-07-13T04:45:43;16.40;99.90
37786;DHT22;23625;48.784;9.336;2023-07-13T04:48:09;16.40;99.90
37786;DHT22;23625;48.784;9.336;2023-07-13T04:50:41;16.50;99.90
37786;DHT22;23625;48.784;9.336;2023-07-13T04:53:06;16.50;99.90
37786;DHT22;23625;48.784;9.336;2023-07-13T04:55:35;16.60;99.90
37786;DHT22;23625;48.784;9.336;2023-07-13T04:58:00;16.60;99.90
37786;DHT22;23625;48.784;9.336;2023-07-13T05:00:28;16.60;99.90
37786;DHT22;23625;48.784;9.336;2023-07-13T05:02:55;16.70;99.90
37786;DHT22;23625;48.784;9.336;2023-07-13T05:05:21;16.70;99.90
37786;DHT22;23625;48.784;9.336;2023-07-13T05:07:46;16.70;99.90
37786;DHT22;23625;48.784;9.336;2023-07-13T05:10:12;16.70;99.90
37786;DHT22;23625;48.784;9.336;2023-07-13T05:12:37;16.70;99.90
37786;DHT22;23625;48.784;9.336;2023-07-13T05:15:03;16.80;99.90
37786;DHT22;23625;48.784;9.336;2023-07-13T05:17:29;16.80;99.90
37786;DHT22;23625;48.784;9.336;2023-07-13T05:19:55;16.80;99.90
37786;DHT22;23625;48.784;9.336;2023-07-13T05:22:21;16.90;99.90
37786;DHT22;23625;48.784;9.336;2023-07-13T05:24:46;16.90;99.90
37786;DHT22;23625;48.784;9.336;2023-07-13T05:27:12;17.00;99.90
37786;DHT22;23625;48.784;9.336;2023-07-13T05:29:37;17.10;99.90
37786;DHT22;23625;48.784;9.336;2023-07-13T05:32:04;17.20;99.90
37786;DHT22;23625;48.784;9.336;2023-07-13T05:34:29;17.30;99.90
37786;DHT22;23625;48.784;9.336;2023-07-13T05:36:55;17.50;99.90
37786;DHT22;23625;48.784;9.336;2023-07-13T05:39:20;17.60;99.90
37786;DHT22;23625;48.784;9.336;2023-07-13T05:41:46;17.60;99.90
37786;DHT22;23625;48.784;9.336;2023-07-13T05:44:12;17.80;99.90
37786;DHT22;23625;48.784;9.336;2023-07-13T05:46:37;17.90;99.90
37786;DHT22;23625;48.784;9.336;2023-07-13T05:49:03;18.00;99.90
37786;DHT22;23625;48.784;9.336;2023-07-13T05:51:29;18.00;99.90
37786;DHT22;23625;48.784;9.336;2023-07-13T05:53:55;18.00;99.90
37786;DHT22;23625;48.784;9.336;2023-07-13T05:56:20;18.10;99.90
37786;DHT22;23625;48.784;9.336;2023-07-13T05:58:48;18.10;99.90
37786;DHT22;23625;48.784;9.336;2023-07-13T06:01:14;18.20;99.90
37786;DHT22;23625;48.784;9.336;2023-07-13T06:03:40;18.20;99.90
37786;DHT22;23625;48.784;9.336;2023-07-13T06:06:07;18.20;99.90
37786;DHT22;23625;48.784;9.336;2023-07-13T06:08:34;18.30;99.90
37786;DHT22;23625;48.784;9.336;2023-07-13T06:11:20;18.40;99.90
37786;DHT22;23625;48.784;9.336;2023-07-13T06:13:46;18.40;99.90
37786;DHT22;23625;48.784;9.336;2023-07-13T06:16:13;18.40;99.90
37786;DHT22;23625;48.784;9.336;2023-07-13T06:18:39;18.40;99.90
37786;DHT22;23625;48.784;9.336;2023-07-13T06:21:09;18.40;99.90
37786;DHT22;23625;48.784;9.336;2023-07-13T06:23:35;18.40;99.90
37786;DHT22;23625;48.784;9.336;2023-07-13T06:26:02;18.50;99.90
37786;DHT22;23625;48.784;9.336;2023-07-13T06:28:28;18.60;99.90
37786;DHT22;23625;48.784;9.336;2023-07-13T06:30:54;18.60;99.90
37786;DHT22;23625;48.784;9.336;2023-07-13T06:33:19;18.80;99.90
37786;DHT22;23625;48.784;9.336;2023-07-13T06:35:45;18.90;99.90
37786;DHT22;23625;48.784;9.336;2023-07-13T06:38:11;19.10;98.00
37786;DHT22;23625;48.784;9.336;2023-07-13T06:40:36;19.20;93.10
37786;DHT22;23625;48.784;9.336;2023-07-13T06:43:02;19.40;91.90
37786;DHT22;23625;48.784;9.336;2023-07-13T06:45:27;19.60;88.10
37786;DHT22;23625;48.784;9.336;2023-07-13T06:47:53;19.80;80.60
37786;DHT22;23625;48.784;9.336;2023-07-13T06:50:18;19.90;78.80
37786;DHT22;23625;48.784;9.336;2023-07-13T06:52:44;20.00;77.00
37786;DHT22;23625;48.784;9.336;2023-07-13T06:55:10;20.30;77.20
37786;DHT22;23625;48.784;9.336;2023-07-13T06:57:35;20.50;75.30
37786;DHT22;23625;48.784;9.336;2023-07-13T07:00:01;20.60;76.50
37786;DHT22;23625;48.784;9.336;2023-07-13T07:02:26;20.60;74.30
37786;DHT22;23625;48.784;9.336;2023-07-13T07:04:52;20.80;75.40
37786;DHT22;23625;48.784;9.336;2023-07-13T07:07:19;21.00;74.30
37786;DHT22;23625;48.784;9.336;2023-07-13T07:09:45;21.20;70.70
37786;DHT22;23625;48.784;9.336;2023-07-13T07:12:10;21.10;68.80
37786;DHT22;23625;48.784;9.336;2023-07-13T07:14:36;21.20;69.60
37786;DHT22;23625;48.784;9.336;2023-07-13T07:17:01;21.30;62.70
37786;DHT22;23625;48.784;9.336;2023-07-13T07:19:30;21.30;63.50
37786;DHT22;23625;48.784;9.336;2023-07-13T07:21:56;21.40;64.80
37786;DHT22;23625;48.784;9.336;2023-07-13T07:24:22;21.50;65.10
37786;DHT22;23625;48.784;9.336;2023-07-13T07:26:47;21.50;65.60
37786;DHT22;23625;48.784;9.336;2023-07-13T07:29:13;21.60;62.70
37786;DHT22;23625;48.784;9.336;2023-07-13T07:31:38;21.60;62.30
37786;DHT22;23625;48.784;9.336;2023-07-13T07:34:04;21.70;60.00
37786;DHT22;23625;48.784;9.336;2023-07-13T07:36:29;21.50;59.70
37786;DHT22;23625;48.784;9.336;2023-07-13T07:38:55;21.50;61.20
37786;DHT22;23625;48.784;9.336;2023-07-13T07:41:20;21.50;60.60
37786;DHT22;23625;48.784;9.336;2023-07-13T07:43:46;21.70;59.80
37786;DHT22;23625;48.784;9.336;2023-07-13T07:46:12;21.70;58.90
37786;DHT22;23625;48.784;9.336;2023-07-13T07:48:38;21.80;58.30
37786;DHT22;23625;48.784;9.336;2023-07-13T07:51:03;21.70;56.60
37786;DHT22;23625;48.784;9.336;2023-07-13T07:53:29;22.00;58.30
37786;DHT22;23625;48.784;9.336;2023-07-13T07:55:54;22.10;56.40
37786;DHT22;23625;48.784;9.336;2023-07-13T07:58:20;22.10;55.70
37786;DHT22;23625;48.784;9.336;2023-07-13T08:00:45;22.20;52.90
37786;DHT22;23625;48.784;9.336;2023-07-13T08:03:11;22.40;54.40
37786;DHT22;23625;48.784;9.336;2023-07-13T08:05:37;22.50;54.10
37786;DHT22;23625;48.784;9.336;2023-07-13T08:08:03;22.50;53.50
37786;DHT22;23625;48.784;9.336;2023-07-13T08:10:29;22.70;53.60
37786;DHT22;23625;48.784;9.336;2023-07-13T08:12:54;22.80;53.70
37786;DHT22;23625;48.784;9.336;2023-07-13T08:15:20;23.00;53.50
37786;DHT22;23625;48.784;9.336;2023-07-13T08:17:47;23.20;53.20
37786;DHT22;23625;48.784;9.336;2023-07-13T08:20:13;23.40;52.20
37786;DHT22;23625;48.784;9.336;2023-07-13T08:22:39;23.40;51.00
37786;DHT22;23625;48.784;9.336;2023-07-13T08:25:05;23.40;51.40
37786;DHT22;23625;48.784;9.336;2023-07-13T08:27:30;23.50;53.00
37786;DHT22;23625;48.784;9.336;2023-07-13T08:29:56;23.70;52.70
37786;DHT22;23625;48.784;9.336;2023-07-13T08:32:22;23.90;52.50
37786;DHT22;23625;48.784;9.336;2023-07-13T08:34:49;24.10;52.40
37786;DHT22;23625;48.784;9.336;2023-07-13T08:37:15;24.30;51.20
37786;DHT22;23625;48.784;9.336;2023-07-13T08:39:42;24.30;51.50
37786;DHT22;23625;48.784;9.336;2023-07-13T08:42:13;24.50;51.60
37786;DHT22;23625;48.784;9.336;2023-07-13T08:47:30;24.70;50.60
37786;DHT22;23625;48.784;9.336;2023-07-13T08:49:57;24.50;51.60
37786;DHT22;23625;48.784;9.336;2023-07-13T08:52:33;24.60;50.80
37786;DHT22;23625;48.784;9.336;2023-07-13T08:55:12;24.80;50.00
37786;DHT22;23625;48.784;9.336;2023-07-13T08:57:42;24.80;48.20
37786;DHT22;23625;48.784;9.336;2023-07-13T09:00:13;24.70;49.10
37786;DHT22;23625;48.784;9.336;2023-07-13T09:02:58;24.80;49.40
37786;DHT22;23625;48.784;9.336;2023-07-13T09:05:38;24.90;48.70
37786;DHT22;23625;48.784;9.336;2023-07-13T09:16:17;25.90;47.40
37786;DHT22;23625;48.784;9.336;2023-07-13T09:18:49;25.90;46.60
37786;DHT22;23625;48.784;9.336;2023-07-13T09:21:18;25.80;46.30
37786;DHT22;23625;48.784;9.336;2023-07-13T09:23:47;25.50;45.60
37786;DHT22;23625;48.784;9.336;2023-07-13T09:28:47;24.90;48.20
37786;DHT22;23625;48.784;9.336;2023-07-13T09:31:16;25.40;49.10
37786;DHT22;23625;48.784;9.336;2023-07-13T09:33:42;25.80;47.30
37786;DHT22;23625;48.784;9.336;2023-07-13T09:36:28;25.70;46.40
37786;DHT22;23625;48.784;9.336;2023-07-13T09:41:49;25.20;47.70
37786;DHT22;23625;48.784;9.336;2023-07-13T09:44:18;25.00;47.50
37786;DHT22;23625;48.784;9.336;2023-07-13T09:46:54;25.20;48.00
37786;DHT22;23625;48.784;9.336;2023-07-13T09:49:29;25.60;47.80
37786;DHT22;23625;48.784;9.336;2023-07-13T09:52:03;25.40;47.40
37786;DHT22;23625;48.784;9.336;2023-07-13T09:54:32;25.50;47.90
37786;DHT22;23625;48.784;9.336;2023-07-13T09:57:00;25.80;47.60
37786;DHT22;23625;48.784;9.336;2023-07-13T09:59:30;26.00;47.40
37786;DHT22;23625;48.784;9.336;2023-07-13T10:01:56;26.10;45.70
37786;DHT22;23625;48.784;9.336;2023-07-13T10:04:31;26.30;46.00
37786;DHT22;23625;48.784;9.336;2023-07-13T10:07:08;26.30;46.00
37786;DHT22;23625;48.784;9.336;2023-07-13T10:09:34;26.30;46.50
37786;DHT22;23625;48.784;9.336;2023-07-13T10:12:00;26.40;46.40
37786;DHT22;23625;48.784;9.336;2023-07-13T10:14:27;26.50;46.30
37786;DHT22;23625;48.784;9.336;2023-07-13T10:16:59;26.50;46.70
37786;DHT22;23625;48.784;9.336;2023-07-13T10:19:29;26.50;45.90
37786;DHT22;23625;48.784;9.336;2023-07-13T10:21:59;26.40;45.50
37786;DHT22;23625;48.784;9.336;2023-07-13T10:24:29;26.50;46.50
37786;DHT22;23625;48.784;9.336;2023-07-13T10:27:15;26.30;45.40
37786;DHT22;23625;48.784;9.336;2023-07-13T10:29:54;25.90;46.30
37786;DHT22;23625;48.784;9.336;2023-07-13T10:32:24;26.10;46.80
37786;DHT22;23625;48.784;9.336;2023-07-13T10:34:51;26.10;46.60
37786;DHT22;23625;48.784;9.336;2023-07-13T10:37:30;26.40;46.30
37786;DHT22;23625;48.784;9.336;2023-07-13T10:39:59;26.60;46.20
37786;DHT22;23625;48.784;9.336;2023-07-13T10:42:40;26.80;45.20
37786;DHT22;23625;48.784;9.336;2023-07-13T10:45:16;27.00;44.60
37786;DHT22;23625;48.784;9.336;2023-07-13T10:47:43;27.30;45.00
37786;DHT22;23625;48.784;9.336;2023-07-13T10:50:17;27.00;44.10
37786;DHT22;23625;48.784;9.336;2023-07-13T10:52:47;27.10;44.90
37786;DHT22;23625;48.784;9.336;2023-07-13T10:55:54;26.90;44.80
37786;DHT22;23625;48.784;9.336;2023-07-13T10:58:21;26.30;44.80
37786;DHT22;23625;48.784;9.336;2023-07-13T11:01:04;25.70;45.20
37786;DHT22;23625;48.784;9.336;2023-07-13T11:03:46;25.40;47.20
37786;DHT22;23625;48.784;9.336;2023-07-13T11:08:52;25.50;47.70
37786;DHT22;23625;48.784;9.336;2023-07-13T11:22:09;25.90;45.40
37786;DHT22;23625;48.784;9.336;2023-07-13T11:24:50;25.90;45.60
37786;DHT22;23625;48.784;9.336;2023-07-13T11:27:32;26.40;45.80
37786;DHT22;23625;48.784;9.336;2023-07-13T11:33:15;26.50;44.60
37786;DHT22;23625;48.784;9.336;2023-07-13T11:38:28;27.10;45.40
37786;DHT22;23625;48.784;9.336;2023-07-13T11:40:56;27.00;44.80
37786;DHT22;23625;48.784;9.336;2023-07-13T11:43:23;26.70;44.90
37786;DHT22;23625;48.784;9.336;2023-07-13T11:45:50;26.60;45.90
37786;DHT22;23625;48.784;9.336;2023-07-13T11:48:23;26.20;45.50
37786;DHT22;23625;48.784;9.336;2023-07-13T11:51:01;26.20;46.50
37786;DHT22;23625;48.784;9.336;2023-07-13T11:53:35;26.50;46.70
37786;DHT22;23625;48.784;9.336;2023-07-13T11:56:02;26.70;45.50
37786;DHT22;23625;48.784;9.336;2023-07-13T11:58:28;26.80;45.00
37786;DHT22;23625;48.784;9.336;2023-07-13T12:00:55;27.00;46.10
37786;DHT22;23625;48.784;9.336;2023-07-13T12:03:24;27.30;44.90
37786;DHT22;23625;48.784;9.336;2023-07-13T12:05:58;27.00;44.60
37786;DHT22;23625;48.784;9.336;2023-07-13T12:08:25;27.00;44.90
37786;DHT22;23625;48.784;9.336;2023-07-13T12:11:00;27.10;45.40
37786;DHT22;23625;48.784;9.336;2023-07-13T12:13:35;27.10;45.00
37786;DHT22;23625;48.784;9.336;2023-07-13T12:16:02;26.80;44.70
37786;DHT22;23625;48.784;9.336;2023-07-13T12:18:31;26.60;45.30
37786;DHT22;23625;48.784;9.336;2023-07-13T12:20:59;26.60;45.20
37786;DHT22;23625;48.784;9.336;2023-07-13T12:23:30;26.70;45.50
37786;DHT22;23625;48.784;9.336;2023-07-13T12:25:57;26.80;45.90
37786;DHT22;23625;48.784;9.336;2023-07-13T12:28:34;26.90;45.10
37786;DHT22;23625;48.784;9.336;2023-07-13T12:31:03;26.70;44.50
37786;DHT22;23625;48.784;9.336;2023-07-13T12:33:31;26.70;44.70
37786;DHT22;23625;48.784;9.336;2023-07-13T12:35:59;26.90;44.70
37786;DHT22;23625;48.784;9.336;2023-07-13T12:38:25;27.10;44.50
37786;DHT22;23625;48.784;9.336;2023-07-13T12:40:52;27.20;44.10
37786;DHT22;23625;48.784;9.336;2023-07-13T12:43:20;27.40;44.70
37786;DHT22;23625;48.784;9.336;2023-07-13T12:46:19;27.40;43.60
37786;DHT22;23625;48.784;9.336;2023-07-13T12:48:43;27.80;43.40
37786;DHT22;23625;48.784;9.336;2023-07-13T12:51:13;27.70;43.70
37786;DHT22;23625;48.784;9.336;2023-07-13T12:53:42;27.40;43.20
37786;DHT22;23625;48.784;9.336;2023-07-13T12:56:21;27.70;43.80
37786;DHT22;23625;48.784;9.336;2023-07-13T12:58:49;28.00;43.60
37786;DHT22;23625;48.784;9.336;2023-07-13T13:01:21;27.80;42.90
37786;DHT22;23625;48.784;9.336;2023-07-13T13:03:51;27.40;42.60
37786;DHT22;23625;48.784;9.336;2023-07-13T13:08:47;26.70;43.80
37786;DHT22;23625;48.784;9.336;2023-07-13T13:11:14;26.60;43.80
37786;DHT22;23625;48.784;9.336;2023-07-13T13:13:41;26.60;43.90
37786;DHT22;23625;48.784;9.336;2023-07-13T13:16:12;26.50;43.70
37786;DHT22;23625;48.784;9.336;2023-07-13T13:18:39;26.60;44.00
37786;DHT22;23625;48.784;9.336;2023-07-13T13:21:05;26.70;44.10
37786;DHT22;23625;48.784;9.336;2023-07-13T13:23:31;26.70;43.90
37786;DHT22;23625;48.784;9.336;2023-07-13T13:25:57;26.70;43.30
37786;DHT22;23625;48.784;9.336;2023-07-13T13:28:23;26.50;43.70
37786;DHT22;23625;48.784;9.336;2023-07-13T13:30:50;26.40;43.90
37786;DHT22;23625;48.784;9.336;2023-07-13T13:33:18;26.40;43.90
37786;DHT22;23625;48.784;9.336;2023-07-13T13:35:44;26.50;43.80
37786;DHT22;23625;48.784;9.336;2023-07-13T13:38:15;26.50;42.40
37786;DHT22;23625;48.784;9.336;2023-07-13T13:40:41;26.40;42.20
37786;DHT22;23625;48.784;9.336;2023-07-13T13:43:18;26.60;42.70
37786;DHT22;23625;48.784;9.336;2023-07-13T13:45:45;27.00;43.00
37786;DHT22;23625;48.784;9.336;2023-07-13T13:48:16;27.20;43.00
37786;DHT22;23625;48.784;9.336;2023-07-13T13:50:42;27.50;43.20
37786;DHT22;23625;48.784;9.336;2023-07-13T13:53:12;27.90;43.20
37786;DHT22;23625;48.784;9.336;2023-07-13T13:55:39;28.10;42.00
37786;DHT22;23625;48.784;9.336;2023-07-13T13:58:10;28.20;41.30
37786;DHT22;23625;48.784;9.336;2023-07-13T14:00:37;28.30;41.40
37786;DHT22;23625;48.784;9.336;2023-07-13T14:03:03;28.20;40.70
37786;DHT22;23625;48.784;9.336;2023-07-13T14:05:29;28.00;40.70
37786;DHT22;23625;48.784;9.336;2023-07-13T14:07:56;28.00;40.10
37786;DHT22;23625;48.784;9.336;2023-07-13T14:10:25;28.00;41.40
37786;DHT22;23625;48.784;9.336;2023-07-13T14:12:53;27.90;40.50
37786;DHT22;23625;48.784;9.336;2023-07-13T14:15:25;28.20;41.90
37786;DHT22;23625;48.784;9.336;2023-07-13T14:17:51;28.00;40.50
37786;DHT22;23625;48.784;9.336;2023-07-13T14:20:18;28.00;40.70
37786;DHT22;23625;48.784;9.336;2023-07-13T14:22:45;28.10;40.80
37786;DHT22;23625;48.784;9.336;2023-07-13T14:25:12;28.00;40.70
37786;DHT22;23625;48.784;9.336;2023-07-13T14:27:38;27.80;40.70
37786;DHT22;23625;48.784;9.336;2023-07-13T14:30:12;27.50;40.60
37786;DHT22;23625;48.784;9.336;2023-07-13T14:32:37;27.30;40.80
37786;DHT22;23625;48.784;9.336;2023-07-13T14:35:03;27.20;41.50
37786;DHT22;23625;48.784;9.336;2023-07-13T14:37:29;27.30;41.30
37786;DHT22;23625;48.784;9.336;2023-07-13T14:39:54;27.00;41.40
37786;DHT22;23625;48.784;9.336;2023-07-13T14:42:20;27.00;41.60
37786;DHT22;23625;48.784;9.336;2023-07-13T14:44:46;27.10;41.90
37786;DHT22;23625;48.784;9.336;2023-07-13T14:47:11;27.10;41.50
37786;DHT22;23625;48.784;9.336;2023-07-13T14:49:42;27.00;41.50
37786;DHT22;23625;48.784;9.336;2023-07-13T14:52:20;27.30;41.80
37786;DHT22;23625;48.784;9.336;2023-07-13T14:54:46;27.20;41.30
37786;DHT22;23625;48.784;9.336;2023-07-13T14:57:17;27.00;41.90
37786;DHT22;23625;48.784;9.336;2023-07-13T14:59:44;27.00;42.20
37786;DHT22;23625;48.784;9.336;2023-07-13T15:02:33;27.10;42.30
37786;DHT22;23625;48.784;9.336;2023-07-13T15:05:01;27.10;41.50
37786;DHT22;23625;48.784;9.336;2023-07-13T15:07:26;27.10;41.80
37786;DHT22;23625;48.784;9.336;2023-07-13T15:09:52;27.20;41.60
37786;DHT22;23625;48.784;9.336;2023-07-13T15:12:18;27.10;41.40
37786;DHT22;23625;48.784;9.336;2023-07-13T15:14:43;27.00;41.90
37786;DHT22;23625;48.784;9.336;2023-07-13T15:17:39;26.90;42.20
37786;DHT22;23625;48.784;9.336;2023-07-13T15:20:18;26.80;42.50
37786;DHT22;23625;48.784;9.336;2023-07-13T15:22:45;26.70;42.60
37786;DHT22;23625;48.784;9.336;2023-07-13T15:25:18;26.40;42.60
37786;DHT22;23625;48.784;9.336;2023-07-13T15:27:44;26.50;43.00
37786;DHT22;23625;48.784;9.336;2023-07-13T15:30:10;26.80;42.70
37786;DHT22;23625;48.784;9.336;2023-07-13T15:32:36;27.30;42.60
37786;DHT22;23625;48.784;9.336;2023-07-13T15:35:01;27.60;42.30
37786;DHT22;23625;48.784;9.336;2023-07-13T15:37:27;27.40;42.10
37786;DHT22;23625;48.784;9.336;2023-07-13T15:39:52;27.30;42.10
37786;DHT22;23625;48.784;9.336;2023-07-13T15:42:20;27.30;42.50
37786;DHT22;23625;48.784;9.336;2023-07-13T15:44:47;26.90;42.50
37786;DHT22;23625;48.784;9.336;2023-07-13T15:47:13;27.10;43.00
37786;DHT22;23625;48.784;9.336;2023-07-13T15:49:40;27.20;42.40
37786;DHT22;23625;48.784;9.336;2023-07-13T15:52:21;27.60;42.50
37786;DHT22;23625;48.784;9.336;2023-07-13T15:54:48;27.80;42.30
37786;DHT22;23625;48.784;9.336;2023-07-13T15:57:14;27.90;41.80
37786;DHT22;23625;48.784;9.336;2023-07-13T15:59:41;27.80;41.30
37786;DHT22;23625;48.784;9.336;2023-07-13T16:02:18;27.50;42.30
37786;DHT22;23625;48.784;9.336;2023-07-13T16:04:45;27.40;41.70
37786;DHT22;23625;48.784;9.336;2023-07-13T16:07:11;27.20;41.80
37786;DHT22;23625;48.784;9.336;2023-07-13T16:09:38;27.20;41.90
37786;DHT22;23625;48.784;9.336;2023-07-13T16:12:15;27.40;42.20
37786;DHT22;23625;48.784;9.336;2023-07-13T16:14:41;27.80;42.10
37786;DHT22;23625;48.784;9.336;2023-07-13T16:17:11;28.30;41.50